createdAt,value
2019-01-23T00:00:25.875Z,22.73
2019-01-23T00:02:54.457Z,23.77
2019-01-23T00:05:23.020Z,22.10
2019-01-23T00:07:51.616Z,23.73
2019-01-23T00:10:20.176Z,23.20
2019-01-23T00:12:48.772Z,23.93
2019-01-23T00:15:17.345Z,23.30
2019-01-23T00:17:45.944Z,22.33
2019-01-23T00:20:14.587Z,23.77
2019-01-23T00:22:43.175Z,22.27
2019-01-23T00:25:11.747Z,24.87
2019-01-23T00:27:40.347Z,23.20
2019-01-23T00:30:14.027Z,23.73
2019-01-23T00:32:42.614Z,22.47
2019-01-23T00:35:11.469Z,23.67
2019-01-23T00:37:40.065Z,23.40
2019-01-23T00:40:13.728Z,23.93
2019-01-23T00:42:42.383Z,23.53
2019-01-23T00:45:13.202Z,22.23
2019-01-23T00:47:41.791Z,24.80
2019-01-23T00:50:11.598Z,24.53
2019-01-23T00:52:40.191Z,24.57
2019-01-23T00:55:11.973Z,23.33
2019-01-23T00:57:40.567Z,23.70
2019-01-23T01:00:23.628Z,24.37
2019-01-23T01:02:52.767Z,23.30
2019-01-23T01:05:21.779Z,24.30
2019-01-23T01:07:50.612Z,23.70
2019-01-23T01:10:20.623Z,24.27
2019-01-23T01:12:49.497Z,23.63
2019-01-23T01:15:18.200Z,24.20
2019-01-23T01:17:46.923Z,23.30
2019-01-23T01:20:16.334Z,24.00
2019-01-23T01:22:45.004Z,24.47
2019-01-23T01:25:15.916Z,24.97
2019-01-23T01:27:44.581Z,25.70
2019-01-23T01:30:18.419Z,25.20
2019-01-23T01:32:47.150Z,24.80
2019-01-23T01:35:15.792Z,26.93
2019-01-23T01:37:44.522Z,25.50
2019-01-23T01:40:15.532Z,26.30
2019-01-23T01:42:44.124Z,26.00
2019-01-23T01:45:14.638Z,27.03
2019-01-23T01:47:43.227Z,25.33
2019-01-23T01:50:16.732Z,25.67
2019-01-23T01:52:45.317Z,25.50
2019-01-23T01:55:13.970Z,26.57
2019-01-23T01:57:42.547Z,25.90
2019-01-23T02:00:19.280Z,24.93
2019-01-23T02:02:47.878Z,25.87
2019-01-23T02:05:16.979Z,25.70
2019-01-23T02:07:45.639Z,26.17
2019-01-23T02:10:19.184Z,25.30
2019-01-23T02:12:48.412Z,25.17
2019-01-23T02:15:17.724Z,25.07
2019-01-23T02:17:46.396Z,26.07
2019-01-23T02:20:23.445Z,25.40
2019-01-23T02:22:52.104Z,23.70
2019-01-23T02:25:20.844Z,24.73
2019-01-23T02:27:49.900Z,24.87
2019-01-23T02:30:22.885Z,26.43
2019-01-23T02:32:51.478Z,27.27
2019-01-23T02:35:20.128Z,25.53
2019-01-23T02:37:48.717Z,27.13
2019-01-23T02:40:19.329Z,25.80
2019-01-23T02:42:47.924Z,25.47
2019-01-23T02:45:16.755Z,26.53
2019-01-23T02:47:45.511Z,24.93
2019-01-23T02:50:14.922Z,25.47
2019-01-23T02:52:43.522Z,24.60
2019-01-23T02:55:12.326Z,25.50
2019-01-23T02:57:40.909Z,26.17
2019-01-23T03:00:12.328Z,24.30
2019-01-23T03:02:40.924Z,24.13
2019-01-23T03:05:12.644Z,24.57
2019-01-23T03:07:41.243Z,23.60
2019-01-23T03:10:12.665Z,25.60
2019-01-23T03:12:41.244Z,26.07
2019-01-23T03:15:11.955Z,24.70
2019-01-23T03:17:40.692Z,22.83
2019-01-23T03:20:11.719Z,24.00
2019-01-23T03:22:40.383Z,24.47
2019-01-23T03:25:10.893Z,24.80
2019-01-23T03:27:39.540Z,23.53
2019-01-23T03:30:11.191Z,22.37
2019-01-23T03:32:39.783Z,22.50
2019-01-23T03:35:09.686Z,21.53
2019-01-23T03:37:38.282Z,19.10
2019-01-23T03:40:09.933Z,19.50
2019-01-23T03:42:38.521Z,20.87
2019-01-23T03:45:09.730Z,18.47
2019-01-23T03:47:38.317Z,20.10
2019-01-23T03:50:10.332Z,20.27
2019-01-23T03:52:38.919Z,15.03
2019-01-23T03:55:09.432Z,19.20
2019-01-23T03:57:38.029Z,19.37
2019-01-23T04:00:14.776Z,21.57
2019-01-23T04:02:43.747Z,20.90
2019-01-23T04:05:13.051Z,17.93
2019-01-23T04:07:41.635Z,17.17
2019-01-23T04:10:15.003Z,20.33
2019-01-23T04:12:43.655Z,18.60
2019-01-23T04:15:14.675Z,21.37
2019-01-23T04:17:43.401Z,18.17
2019-01-23T04:20:14.612Z,20.53
2019-01-23T04:22:43.644Z,22.63
2019-01-23T04:25:12.662Z,25.13
2019-01-23T04:27:41.248Z,24.23
2019-01-23T04:30:18.648Z,25.33
2019-01-23T04:32:47.233Z,25.13
2019-01-23T04:35:15.808Z,25.03
2019-01-23T04:37:44.476Z,28.37
2019-01-23T04:40:14.675Z,28.57
2019-01-23T04:42:43.339Z,28.50
2019-01-23T04:45:14.518Z,29.43
2019-01-23T04:47:43.114Z,29.53
2019-01-23T04:50:17.359Z,28.93
2019-01-23T04:52:47.592Z,29.00
2019-01-23T04:55:16.176Z,29.03
2019-01-23T04:57:44.741Z,30.20
2019-01-23T05:00:15.829Z,29.43
2019-01-23T05:02:44.443Z,28.80
2019-01-23T05:05:13.283Z,28.50
2019-01-23T05:07:41.855Z,27.53
2019-01-23T05:10:10.583Z,25.90
2019-01-23T05:12:39.161Z,26.50
2019-01-23T05:15:09.401Z,21.03
2019-01-23T05:17:37.959Z,22.77
2019-01-23T05:20:09.626Z,21.43
2019-01-23T05:22:38.202Z,17.03
2019-01-23T05:25:07.435Z,18.27
2019-01-23T05:27:36.386Z,19.40
2019-01-23T05:30:11.081Z,21.33
2019-01-23T05:32:39.645Z,24.50
2019-01-23T05:35:08.373Z,26.73
2019-01-23T05:37:36.943Z,26.07
2019-01-23T05:40:08.165Z,27.90
2019-01-23T05:42:36.720Z,25.47
2019-01-23T05:45:07.958Z,27.07
2019-01-23T05:47:36.528Z,27.13
2019-01-23T05:50:08.195Z,25.97
2019-01-23T05:52:36.764Z,24.17
2019-01-23T05:55:07.795Z,25.20
2019-01-23T05:57:36.378Z,26.90
2019-01-23T06:00:08.112Z,25.17
2019-01-23T06:02:36.680Z,28.70
2019-01-23T06:05:08.086Z,27.80
2019-01-23T06:07:36.657Z,27.97
2019-01-23T06:10:08.387Z,27.80
2019-01-23T06:12:36.960Z,27.87
2019-01-23T06:15:08.868Z,29.13
2019-01-23T06:17:37.435Z,30.33
2019-01-23T06:20:09.227Z,30.87
2019-01-23T06:22:37.795Z,32.53
2019-01-23T06:25:07.052Z,31.77
2019-01-23T06:27:35.596Z,30.57
2019-01-23T06:30:10.475Z,33.63
2019-01-23T06:32:37.482Z,33.83
2019-01-23T06:35:06.709Z,33.40
2019-01-23T06:37:35.277Z,32.23
2019-01-23T06:40:06.807Z,33.33
2019-01-23T06:42:35.380Z,34.50
2019-01-23T06:45:05.008Z,32.90
2019-01-23T06:47:33.579Z,33.93
2019-01-23T06:50:02.169Z,32.17
2019-01-23T06:52:30.742Z,33.90
2019-01-23T06:54:59.328Z,33.80
2019-01-23T06:57:27.895Z,33.37
2019-01-23T06:59:56.491Z,35.17
2019-01-23T07:02:25.064Z,35.13
2019-01-23T07:04:53.659Z,32.40
2019-01-23T07:07:22.233Z,34.07
2019-01-23T07:09:50.827Z,35.60
2019-01-23T07:12:19.391Z,32.83
2019-01-23T07:14:47.986Z,33.80
2019-01-23T07:17:16.554Z,34.37
2019-01-23T07:19:45.148Z,34.97
2019-01-23T07:22:13.715Z,37.17
2019-01-23T07:24:42.312Z,33.70
2019-01-23T07:27:10.871Z,35.13
2019-01-23T07:29:39.535Z,35.30
2019-01-23T07:32:08.102Z,35.67
2019-01-23T07:34:36.695Z,35.23
2019-01-23T07:37:05.345Z,36.07
2019-01-23T07:39:33.931Z,36.03
2019-01-23T07:42:02.500Z,37.87
2019-01-23T07:44:31.100Z,39.07
2019-01-23T07:46:59.739Z,37.40
2019-01-23T07:49:28.333Z,38.70
2019-01-23T07:51:56.899Z,39.00
2019-01-23T07:54:25.495Z,38.83
2019-01-23T07:56:54.067Z,38.83
2019-01-23T07:59:22.662Z,40.23
2019-01-23T08:01:51.227Z,41.00
2019-01-23T08:04:19.822Z,40.60
2019-01-23T08:06:48.387Z,39.37
2019-01-23T08:09:16.962Z,41.33
2019-01-23T08:11:45.556Z,42.33
2019-01-23T08:14:14.143Z,40.30
2019-01-23T08:16:42.731Z,40.23
2019-01-23T08:19:11.305Z,41.13
2019-01-23T08:21:39.963Z,41.00
2019-01-23T08:24:08.536Z,41.03
2019-01-23T08:26:37.127Z,42.00
2019-01-23T08:29:05.695Z,38.53
2019-01-23T08:31:34.287Z,41.33
2019-01-23T08:34:02.927Z,40.07
2019-01-23T08:36:31.529Z,40.97
2019-01-23T08:39:00.088Z,42.00
2019-01-23T08:41:28.679Z,43.63
2019-01-23T08:43:57.248Z,40.67
2019-01-23T08:46:25.907Z,40.73
2019-01-23T08:48:54.547Z,41.07
2019-01-23T08:51:23.141Z,40.80
2019-01-23T08:53:51.714Z,38.13
2019-01-23T08:56:20.368Z,42.03
2019-01-23T08:58:48.945Z,42.93
2019-01-23T09:01:17.531Z,40.17
2019-01-23T09:03:46.101Z,40.47
2019-01-23T09:06:14.695Z,39.50
2019-01-23T09:08:43.267Z,41.47
2019-01-23T09:11:11.872Z,44.20
2019-01-23T09:13:40.451Z,39.33
2019-01-23T09:16:09.039Z,41.30
2019-01-23T09:18:37.612Z,42.53
2019-01-23T09:21:06.203Z,42.67
2019-01-23T09:23:34.775Z,42.73
2019-01-23T09:26:03.367Z,42.80
2019-01-23T09:28:32.003Z,42.10
2019-01-23T09:31:06.519Z,41.20
2019-01-23T09:33:38.168Z,41.33
2019-01-23T09:36:12.751Z,38.37
2019-01-23T09:39:08.445Z,39.67
2019-01-23T09:41:56.623Z,38.23
2019-01-23T09:44:40.784Z,33.77
2019-01-23T09:47:31.753Z,36.57
2019-01-23T09:50:12.151Z,32.40
2019-01-23T09:53:00.259Z,38.93
2019-01-23T09:55:28.856Z,32.63
2019-01-23T09:57:57.427Z,27.27
2019-01-23T10:00:31.778Z,38.57
2019-01-23T10:02:59.919Z,40.13
2019-01-23T10:05:28.512Z,39.33
2019-01-23T10:07:57.152Z,38.73
2019-01-23T10:10:25.743Z,30.37
2019-01-23T10:12:54.319Z,29.30
2019-01-23T10:15:28.919Z,40.13
2019-01-23T10:17:57.486Z,34.60
2019-01-23T10:20:26.080Z,39.03
2019-01-23T10:22:54.655Z,40.13
2019-01-23T10:25:23.243Z,37.43
2019-01-23T10:27:51.815Z,36.03
2019-01-23T10:30:20.456Z,34.43
2019-01-23T10:32:49.052Z,38.90
2019-01-23T10:35:18.796Z,40.63
2019-01-23T10:37:47.388Z,35.13
2019-01-23T10:40:17.617Z,37.43
2019-01-23T10:42:46.332Z,38.20
2019-01-23T10:45:15.455Z,34.13
2019-01-23T10:47:44.593Z,38.63
2019-01-23T10:50:17.668Z,40.20
2019-01-23T10:52:46.259Z,35.47
2019-01-23T10:55:14.971Z,36.23
2019-01-23T10:57:43.636Z,32.60
2019-01-23T11:00:17.862Z,36.70
2019-01-23T11:02:46.531Z,39.80
2019-01-23T11:05:18.340Z,38.87
2019-01-23T11:07:46.927Z,40.20
2019-01-23T11:10:21.040Z,33.17
2019-01-23T11:12:49.631Z,32.70
2019-01-23T11:15:18.346Z,32.43
2019-01-23T11:17:47.074Z,32.40
2019-01-23T11:20:20.204Z,27.27
2019-01-23T11:22:48.798Z,33.20
2019-01-23T11:25:17.536Z,30.83
2019-01-23T11:27:46.563Z,36.33
2019-01-23T11:30:26.619Z,34.17
2019-01-23T11:32:55.212Z,28.60
2019-01-23T11:35:24.314Z,27.77
2019-01-23T11:37:53.079Z,27.87
2019-01-23T11:40:30.414Z,31.00
2019-01-23T11:42:59.021Z,34.90
2019-01-23T11:45:28.151Z,36.63
2019-01-23T11:47:56.812Z,36.80
2019-01-23T11:50:25.380Z,35.57
2019-01-23T11:52:54.039Z,32.67
2019-01-23T11:55:22.611Z,35.53
2019-01-23T11:57:51.203Z,36.43
2019-01-23T12:00:25.703Z,34.00
2019-01-23T12:02:54.432Z,33.87
2019-01-23T12:05:23.731Z,31.77
2019-01-23T12:07:52.468Z,32.57
2019-01-23T12:10:25.091Z,30.50
2019-01-23T12:12:53.821Z,29.83
2019-01-23T12:15:24.219Z,29.77
2019-01-23T12:17:52.951Z,24.87
2019-01-23T12:20:21.755Z,32.90
2019-01-23T12:22:50.342Z,33.13
2019-01-23T12:25:19.080Z,24.00
2019-01-23T12:27:47.817Z,33.53
2019-01-23T12:30:22.379Z,27.37
2019-01-23T12:32:51.231Z,34.47
2019-01-23T12:35:19.805Z,32.10
2019-01-23T12:37:48.463Z,35.27
2019-01-23T12:40:17.775Z,34.13
2019-01-23T12:42:46.373Z,30.80
2019-01-23T12:45:17.979Z,34.00
2019-01-23T12:47:46.647Z,31.37
2019-01-23T12:50:18.124Z,30.67
2019-01-23T12:52:46.715Z,27.77
2019-01-23T12:55:15.355Z,29.77
2019-01-23T12:57:43.947Z,28.57
2019-01-23T13:00:22.398Z,30.10
2019-01-23T13:02:51.055Z,30.33
2019-01-23T13:05:21.377Z,28.07
2019-01-23T13:07:50.111Z,30.77
2019-01-23T13:10:21.281Z,32.80
2019-01-23T13:12:50.248Z,30.43
2019-01-23T13:15:20.756Z,28.10
2019-01-23T13:17:49.352Z,30.20
2019-01-23T13:20:20.531Z,29.87
2019-01-23T13:22:49.123Z,30.27
2019-01-23T13:25:19.831Z,27.70
2019-01-23T13:27:48.696Z,30.07
2019-01-23T13:30:19.503Z,30.33
2019-01-23T13:32:48.673Z,25.53
2019-01-23T13:35:28.813Z,23.63
2019-01-23T13:37:57.404Z,33.03
2019-01-23T13:40:31.954Z,32.77
2019-01-23T13:43:00.883Z,32.17
2019-01-23T13:45:29.451Z,30.47
2019-01-23T13:47:58.047Z,26.43
2019-01-23T13:50:26.791Z,31.23
2019-01-23T13:52:55.387Z,33.30
2019-01-23T13:55:24.600Z,29.23
2019-01-23T13:57:53.256Z,35.23
2019-01-23T14:00:30.356Z,33.80
2019-01-23T14:02:59.019Z,36.57
2019-01-23T14:05:27.764Z,38.97
2019-01-23T14:07:56.355Z,40.10
2019-01-23T14:10:24.995Z,40.90
2019-01-23T14:12:53.588Z,37.43
2019-01-23T14:15:39.482Z,43.70
2019-01-23T14:18:08.410Z,39.40
2019-01-23T14:20:37.252Z,35.10
2019-01-23T14:23:05.929Z,41.47
2019-01-23T14:25:34.565Z,38.77
2019-01-23T14:28:03.227Z,39.47
2019-01-23T14:30:36.923Z,41.93
2019-01-23T14:33:05.767Z,42.80
2019-01-23T14:35:35.479Z,42.60
2019-01-23T14:38:04.813Z,39.57
2019-01-23T14:40:33.448Z,42.50
2019-01-23T14:43:02.039Z,40.43
2019-01-23T14:45:30.619Z,41.43
2019-01-23T14:47:59.213Z,40.73
2019-01-23T14:50:27.780Z,40.20
2019-01-23T14:52:56.375Z,32.57
2019-01-23T14:55:24.942Z,38.97
2019-01-23T14:57:53.535Z,40.80
2019-01-23T15:00:32.979Z,37.43
2019-01-23T15:03:01.572Z,37.37
2019-01-23T15:05:30.140Z,33.73
2019-01-23T15:07:58.724Z,38.43
2019-01-23T15:10:30.102Z,33.07
2019-01-23T15:12:59.287Z,44.40
2019-01-23T15:15:27.893Z,46.30
2019-01-23T15:17:56.627Z,39.03
2019-01-23T15:20:30.683Z,39.47
2019-01-23T15:22:59.280Z,46.33
2019-01-23T15:25:27.920Z,44.97
2019-01-23T15:27:56.519Z,43.97
2019-01-23T15:30:25.327Z,45.00
2019-01-23T15:32:53.924Z,34.20
2019-01-23T15:35:22.635Z,42.90
2019-01-23T15:37:51.308Z,39.60
2019-01-23T15:40:25.087Z,39.40
2019-01-23T15:42:53.683Z,41.73
2019-01-23T15:45:22.399Z,44.17
2019-01-23T15:47:51.039Z,39.97
2019-01-23T15:50:22.535Z,37.63
2019-01-23T15:52:51.112Z,36.13
2019-01-23T15:55:22.046Z,41.47
2019-01-23T15:57:50.692Z,41.40
2019-01-23T16:00:21.528Z,48.10
2019-01-23T16:02:50.104Z,37.27
2019-01-23T16:05:18.692Z,49.40
2019-01-23T16:07:47.259Z,49.40
2019-01-23T16:10:20.370Z,40.97
2019-01-23T16:12:49.040Z,51.03
2019-01-23T16:15:20.376Z,46.07
2019-01-23T16:17:49.018Z,52.10
2019-01-23T16:20:17.761Z,50.90
2019-01-23T16:22:46.603Z,48.23
2019-01-23T16:25:17.132Z,50.50
2019-01-23T16:27:46.255Z,47.73
2019-01-23T16:30:20.530Z,45.40
2019-01-23T16:32:49.095Z,52.10
2019-01-23T16:35:17.687Z,51.97
2019-01-23T16:37:46.330Z,54.67
2019-01-23T16:40:14.998Z,57.37
2019-01-23T16:42:43.640Z,53.80
2019-01-23T16:45:17.667Z,56.13
2019-01-23T16:47:46.240Z,54.90
2019-01-23T16:50:26.068Z,54.77
2019-01-23T16:52:54.644Z,52.70
2019-01-23T16:55:23.675Z,51.67
2019-01-23T16:57:52.523Z,51.13
2019-01-23T17:00:27.900Z,49.97
2019-01-23T17:02:57.247Z,55.03
2019-01-23T17:05:30.852Z,54.63
2019-01-23T17:08:01.267Z,55.13
2019-01-23T17:10:29.929Z,56.63
2019-01-23T17:12:58.768Z,55.37
2019-01-23T17:15:27.428Z,55.97
2019-01-23T17:17:56.060Z,54.93
2019-01-23T17:20:33.443Z,48.73
2019-01-23T17:23:02.020Z,54.63
2019-01-23T17:25:30.684Z,44.40
2019-01-23T17:27:59.259Z,51.63
2019-01-23T17:30:27.932Z,52.10
2019-01-23T17:32:56.499Z,53.63
2019-01-23T17:35:25.159Z,54.67
2019-01-23T17:37:53.731Z,54.10
2019-01-23T17:40:23.982Z,54.93
2019-01-23T17:42:52.608Z,55.57
2019-01-23T17:45:26.923Z,53.47
2019-01-23T17:47:55.559Z,54.07
2019-01-23T17:50:25.095Z,51.93
2019-01-23T17:52:53.745Z,54.83
2019-01-23T17:55:34.348Z,49.57
2019-01-23T17:58:02.995Z,48.23
2019-01-23T18:00:34.065Z,48.50
2019-01-23T18:03:02.639Z,48.60
2019-01-23T18:05:31.236Z,46.60
2019-01-23T18:07:59.806Z,49.40
2019-01-23T18:10:28.408Z,53.33
2019-01-23T18:12:57.117Z,49.37
2019-01-23T18:15:28.824Z,40.90
2019-01-23T18:17:57.398Z,50.87
2019-01-23T18:20:28.031Z,42.37
2019-01-23T18:22:57.373Z,51.90
2019-01-23T18:25:26.038Z,48.87
2019-01-23T18:27:54.682Z,46.53
2019-01-23T18:30:38.158Z,43.93
2019-01-23T18:33:10.019Z,42.77
2019-01-23T18:36:13.789Z,46.30
2019-01-23T18:38:45.446Z,44.43
2019-01-23T18:41:17.114Z,46.10
2019-01-23T18:44:05.488Z,44.67
2019-01-23T18:46:56.556Z,43.00
2019-01-23T18:49:31.155Z,41.13
2019-01-23T18:52:14.048Z,41.03
2019-01-23T18:54:43.879Z,40.37
2019-01-23T18:57:18.433Z,36.43
2019-01-23T18:59:47.093Z,36.87
2019-01-23T19:02:15.796Z,38.77
2019-01-23T19:04:44.388Z,38.33
2019-01-23T19:07:12.956Z,38.00
2019-01-23T19:09:41.548Z,37.27
2019-01-23T19:12:10.189Z,34.93
2019-01-23T19:14:38.776Z,34.60
2019-01-23T19:17:07.616Z,37.50
2019-01-23T19:19:36.280Z,33.20
2019-01-23T19:22:05.487Z,30.50
2019-01-23T19:24:34.082Z,29.83
2019-01-23T19:27:02.653Z,29.50
2019-01-23T19:29:31.224Z,28.40
2019-01-23T19:31:59.821Z,31.10
2019-01-23T19:34:28.392Z,26.83
2019-01-23T19:36:56.984Z,27.77
2019-01-23T19:39:25.551Z,26.13
2019-01-23T19:41:54.140Z,26.20
2019-01-23T19:44:22.707Z,28.57
2019-01-23T19:46:51.299Z,25.43
2019-01-23T19:49:19.938Z,26.20
2019-01-23T19:51:49.061Z,25.63
2019-01-23T19:54:17.615Z,24.33
2019-01-23T19:56:46.209Z,22.47
2019-01-23T19:59:14.807Z,21.63
2019-01-23T20:01:43.400Z,24.50
2019-01-23T20:04:11.979Z,23.03
2019-01-23T20:06:40.571Z,24.20
2019-01-23T20:09:10.967Z,23.73
2019-01-23T20:11:40.056Z,23.67
2019-01-23T20:14:08.823Z,22.10
2019-01-23T20:16:37.437Z,23.93
2019-01-23T20:19:07.749Z,21.93
2019-01-23T20:21:36.339Z,24.10
2019-01-23T20:24:05.870Z,23.20
2019-01-23T20:26:34.467Z,22.87
2019-01-23T20:29:03.032Z,23.87
2019-01-23T20:31:31.624Z,24.20
2019-01-23T20:34:00.191Z,24.07
2019-01-23T20:36:28.927Z,23.20
2019-01-23T20:38:57.626Z,24.33
2019-01-23T20:41:26.167Z,24.93
2019-01-23T20:43:54.734Z,24.10
2019-01-23T20:46:23.324Z,23.87
2019-01-23T20:48:51.900Z,24.67
2019-01-23T20:51:20.629Z,26.40
2019-01-23T20:53:49.456Z,25.30
2019-01-23T20:56:18.386Z,24.87
2019-01-23T20:58:47.025Z,23.53
2019-01-23T21:01:15.615Z,23.57
2019-01-23T21:03:44.172Z,23.57
2019-01-23T21:06:12.759Z,23.97
2019-01-23T21:08:41.324Z,23.27
2019-01-23T21:11:09.989Z,23.33
2019-01-23T21:13:38.555Z,24.77
2019-01-23T21:16:07.148Z,22.30
2019-01-23T21:18:35.857Z,22.43
2019-01-23T21:21:05.008Z,23.50
2019-01-23T21:23:34.179Z,23.00
2019-01-23T21:26:02.849Z,21.83
2019-01-23T21:28:31.410Z,22.30
2019-01-23T21:31:00.011Z,22.90
2019-01-23T21:33:28.589Z,21.17
2019-01-23T21:35:57.188Z,19.53
2019-01-23T21:38:25.760Z,19.77
2019-01-23T21:40:54.356Z,18.60
2019-01-23T21:43:22.990Z,14.90
2019-01-23T21:45:51.700Z,18.53
2019-01-23T21:48:20.410Z,18.90
2019-01-23T21:50:49.353Z,15.30
2019-01-23T21:53:17.931Z,19.03
2019-01-23T21:55:46.524Z,15.03
2019-01-23T21:58:15.095Z,18.93
2019-01-23T22:00:44.047Z,20.07
2019-01-23T22:03:12.811Z,16.50
2019-01-23T22:05:41.513Z,15.77
2019-01-23T22:08:10.544Z,14.60
2019-01-23T22:10:39.112Z,13.43
2019-01-23T22:13:07.792Z,13.83
2019-01-23T22:15:36.487Z,17.50
2019-01-23T22:18:06.063Z,13.60
2019-01-23T22:20:34.893Z,13.17
2019-01-23T22:23:03.564Z,13.00
2019-01-23T22:25:32.152Z,10.80
2019-01-23T22:28:00.804Z,19.03
2019-01-23T22:30:31.774Z,15.40
2019-01-23T22:33:00.624Z,17.67
2019-01-23T22:35:29.190Z,14.20
2019-01-23T22:37:57.851Z,17.83
2019-01-23T22:40:26.487Z,14.13
2019-01-23T22:42:55.075Z,18.53
2019-01-23T22:45:23.652Z,12.00
2019-01-23T22:47:52.252Z,13.43
2019-01-23T22:50:25.823Z,15.40
2019-01-23T22:52:54.488Z,15.70
2019-01-23T22:55:23.132Z,16.20
2019-01-23T22:57:51.724Z,12.20
2019-01-23T23:00:26.188Z,15.93
2019-01-23T23:02:54.781Z,15.50
2019-01-23T23:05:23.347Z,17.73
2019-01-23T23:07:51.939Z,17.60
2019-01-23T23:10:21.451Z,14.17
2019-01-23T23:12:50.179Z,14.07
2019-01-23T23:15:18.900Z,15.43
2019-01-23T23:17:47.491Z,18.03
2019-01-23T23:20:16.063Z,17.83
2019-01-23T23:22:44.651Z,17.30
2019-01-23T23:25:13.559Z,15.77
2019-01-23T23:27:42.156Z,15.27
2019-01-23T23:30:16.423Z,15.40
2019-01-23T23:32:45.010Z,16.13
2019-01-23T23:35:13.719Z,15.87
2019-01-23T23:37:42.311Z,13.40
2019-01-23T23:40:15.526Z,18.17
2019-01-23T23:42:45.562Z,15.37
2019-01-23T23:45:17.211Z,16.47
2019-01-23T23:47:45.803Z,13.17
2019-01-23T23:50:15.907Z,16.07
2019-01-23T23:52:44.530Z,13.90
2019-01-23T23:55:16.540Z,16.37
2019-01-23T23:57:45.503Z,16.30
